Metar z pełnej godziny Komunikat METAR ze strony awiacja.imgw.pl Metar G00 EPLB METAR EPLB 241900Z 27004KT CAVOK 15/14 Q1011 =